createdAt,value
2022-12-25T00:00:20.189Z,9.77
2022-12-25T00:00:55.120Z,9.82
2022-12-25T00:01:32.285Z,8.40
2022-12-25T00:02:11.399Z,9.60
2022-12-25T00:02:42.928Z,9.52
2022-12-25T00:03:17.416Z,10.07
2022-12-25T00:03:55.128Z,9.38
2022-12-25T00:04:33.990Z,9.30
2022-12-25T00:05:10.333Z,9.20
2022-12-25T00:05:43.050Z,9.32
2022-12-25T00:06:24.531Z,9.77
2022-12-25T00:07:01.544Z,10.50
2022-12-25T00:07:33.152Z,9.43
2022-12-25T00:08:09.185Z,9.13
2022-12-25T00:08:58.611Z,10.80
2022-12-25T00:09:33.101Z,9.30
2022-12-25T00:10:05.224Z,10.13
2022-12-25T00:11:33.191Z,9.00
2022-12-25T00:12:04.800Z,11.02
2022-12-25T00:12:36.350Z,10.27
2022-12-25T00:13:09.101Z,9.77
2022-12-25T00:13:44.365Z,9.75
2022-12-25T00:14:16.009Z,9.52
2022-12-25T00:14:49.890Z,10.05
2022-12-25T00:15:21.565Z,9.77
2022-12-25T00:15:53.471Z,9.70
2022-12-25T00:16:28.227Z,9.73
2022-12-25T00:17:05.997Z,10.63
2022-12-25T00:17:37.700Z,10.07
2022-12-25T00:18:09.396Z,10.30
2022-12-25T00:18:49.820Z,10.50
2022-12-25T00:19:24.578Z,8.85
2022-12-25T00:19:56.019Z,9.38
2022-12-25T00:20:27.653Z,11.07
2022-12-25T00:21:04.814Z,10.43
2022-12-25T00:21:36.273Z,11.77
2022-12-25T00:22:18.087Z,9.70
2022-12-25T00:22:51.381Z,8.65
2022-12-25T00:23:22.887Z,9.50
2022-12-25T00:23:59.689Z,9.70
2022-12-25T00:24:31.187Z,10.63
2022-12-25T00:25:05.977Z,9.35
2022-12-25T00:25:44.279Z,10.52
2022-12-25T00:26:21.067Z,10.23
2022-12-25T00:26:56.714Z,9.50
2022-12-25T00:27:31.792Z,9.63
2022-12-25T00:28:07.867Z,9.73
2022-12-25T00:28:39.723Z,10.00
2022-12-25T00:29:13.952Z,10.73
2022-12-25T00:30:42.877Z,10.40
2022-12-25T00:31:17.928Z,10.18
2022-12-25T00:31:49.811Z,9.80
2022-12-25T00:32:21.421Z,11.52
2022-12-25T00:32:55.783Z,10.23
2022-12-25T00:33:31.075Z,9.75
2022-12-25T00:34:07.169Z,9.60
2022-12-25T00:34:41.882Z,11.05
2022-12-25T00:35:13.328Z,10.85
2022-12-25T00:36:01.377Z,12.63
2022-12-25T00:36:37.858Z,11.95
2022-12-25T00:37:14.177Z,10.45
2022-12-25T00:37:48.037Z,9.25
2022-12-25T00:38:22.575Z,10.55
2022-12-25T00:38:56.767Z,10.30
2022-12-25T00:39:30.618Z,11.48
2022-12-25T00:40:02.300Z,12.47
2022-12-25T00:41:42.501Z,9.95
2022-12-25T00:42:19.862Z,11.20
2022-12-25T00:42:51.539Z,11.32
2022-12-25T00:43:23.263Z,9.85
2022-12-25T00:43:56.855Z,10.50
2022-12-25T00:44:30.910Z,10.70
2022-12-25T00:45:03.967Z,9.85
2022-12-25T00:45:35.622Z,11.05
2022-12-25T00:46:08.303Z,10.20
2022-12-25T00:46:40.357Z,9.77
2022-12-25T00:47:18.224Z,10.18
2022-12-25T00:47:52.530Z,9.82
2022-12-25T00:48:29.304Z,10.30
2022-12-25T00:49:01.478Z,10.48
2022-12-25T00:49:35.233Z,9.40
2022-12-25T00:50:11.300Z,10.05
2022-12-25T00:50:45.869Z,10.45
2022-12-25T00:51:21.426Z,10.98
2022-12-25T00:51:53.265Z,9.17
2022-12-25T00:52:27.120Z,10.00
2022-12-25T00:53:00.871Z,11.10
2022-12-25T00:53:35.098Z,10.35
2022-12-25T00:54:06.770Z,9.38
2022-12-25T00:54:39.744Z,10.32
2022-12-25T00:55:13.706Z,10.07
2022-12-25T00:55:54.008Z,10.35
2022-12-25T00:56:30.177Z,9.90
2022-12-25T00:57:04.611Z,9.93
2022-12-25T00:57:38.145Z,8.53
2022-12-25T00:58:18.916Z,8.60
2022-12-25T00:58:55.363Z,11.00
2022-12-25T00:59:26.861Z,9.70
2022-12-25T01:00:01.498Z,11.77
2022-12-25T01:00:34.264Z,10.30
2022-12-25T01:01:06.129Z,9.13
2022-12-25T01:01:38.564Z,9.90
2022-12-25T01:02:25.597Z,10.55
2022-12-25T01:02:57.403Z,10.02
2022-12-25T01:03:32.092Z,9.93
2022-12-25T01:04:10.069Z,10.48
2022-12-25T01:04:43.959Z,10.50
2022-12-25T01:05:17.411Z,10.70
2022-12-25T01:06:00.500Z,10.82
2022-12-25T01:06:32.648Z,9.88
2022-12-25T01:07:04.151Z,10.93
2022-12-25T01:07:35.621Z,10.45
2022-12-25T01:08:07.155Z,10.38
2022-12-25T01:09:03.834Z,10.32
2022-12-25T01:09:54.157Z,9.03
2022-12-25T01:10:25.652Z,8.65
2022-12-25T01:10:59.717Z,10.52
2022-12-25T01:11:31.402Z,8.70
2022-12-25T01:12:02.844Z,9.70
2022-12-25T01:12:37.702Z,9.98
2022-12-25T01:13:09.282Z,9.63
2022-12-25T01:13:40.661Z,9.82
2022-12-25T01:14:12.418Z,9.90
2022-12-25T01:14:43.972Z,10.38
2022-12-25T01:15:22.756Z,10.53
2022-12-25T01:15:55.588Z,9.60
2022-12-25T01:16:35.072Z,10.02
2022-12-25T01:17:10.163Z,9.25
2022-12-25T01:17:54.121Z,9.75
2022-12-25T01:18:25.757Z,8.95
2022-12-25T01:18:58.945Z,9.55
2022-12-25T01:19:30.562Z,11.20
2022-12-25T01:20:02.235Z,9.73
2022-12-25T01:20:37.635Z,9.38
2022-12-25T01:21:16.632Z,12.23
2022-12-25T01:21:50.477Z,9.18
2022-12-25T01:22:22.065Z,11.65
2022-12-25T01:22:56.567Z,10.90
2022-12-25T01:23:31.093Z,9.93
2022-12-25T01:24:05.543Z,9.43
2022-12-25T01:24:38.226Z,8.73
2022-12-25T01:25:16.099Z,10.63
2022-12-25T01:25:47.506Z,9.70
2022-12-25T01:26:25.535Z,9.55
2022-12-25T01:26:59.710Z,9.03
2022-12-25T01:27:34.464Z,9.57
2022-12-25T01:28:08.981Z,8.95
2022-12-25T01:28:40.928Z,9.93
2022-12-25T01:29:16.397Z,9.90
2022-12-25T01:29:47.929Z,9.75
2022-12-25T01:30:19.659Z,10.73
2022-12-25T01:30:55.802Z,9.82
2022-12-25T01:31:28.538Z,10.25
2022-12-25T01:32:02.522Z,9.68
2022-12-25T01:32:35.447Z,9.90
2022-12-25T01:33:07.052Z,9.50
2022-12-25T01:34:31.729Z,9.80
2022-12-25T01:35:03.433Z,9.73
2022-12-25T01:35:36.202Z,10.15
2022-12-25T01:36:25.850Z,10.00
2022-12-25T01:36:59.916Z,9.63
2022-12-25T01:37:31.500Z,9.50
2022-12-25T01:38:03.179Z,8.50
2022-12-25T01:38:34.638Z,9.87
2022-12-25T01:39:09.220Z,9.82
2022-12-25T01:39:45.304Z,10.85
2022-12-25T01:40:21.259Z,10.93
2022-12-25T01:40:56.027Z,9.00
2022-12-25T01:41:30.606Z,9.80
2022-12-25T01:42:05.260Z,9.07
2022-12-25T01:42:42.328Z,9.88
2022-12-25T01:43:27.845Z,9.70
2022-12-25T01:44:09.104Z,8.60
2022-12-25T01:44:46.363Z,9.90
2022-12-25T01:45:32.176Z,9.13
2022-12-25T01:46:05.934Z,9.00
2022-12-25T01:46:42.933Z,9.00
2022-12-25T01:47:20.710Z,10.98
2022-12-25T01:47:55.187Z,9.82
2022-12-25T01:48:38.492Z,9.27
2022-12-25T01:49:15.208Z,9.15
2022-12-25T01:49:54.761Z,9.23
2022-12-25T01:50:30.013Z,8.90
2022-12-25T01:51:24.943Z,9.10
2022-12-25T01:52:05.342Z,8.73
2022-12-25T01:52:36.999Z,9.13
2022-12-25T01:53:14.601Z,9.10
2022-12-25T01:53:47.932Z,9.93
2022-12-25T01:54:28.978Z,9.15
2022-12-25T01:55:04.289Z,8.45
2022-12-25T01:55:36.781Z,8.75
2022-12-25T01:56:12.024Z,9.70
2022-12-25T01:56:51.393Z,9.43
2022-12-25T01:57:30.183Z,9.07
2022-12-25T01:58:06.499Z,9.80
2022-12-25T01:58:38.071Z,9.05
2022-12-25T01:59:18.710Z,8.40
2022-12-25T01:59:57.313Z,11.65
2022-12-25T02:00:31.339Z,9.07
2022-12-25T02:01:11.080Z,9.18
2022-12-25T02:01:42.719Z,9.57
2022-12-25T02:02:14.786Z,10.50
2022-12-25T02:02:50.445Z,9.60
2022-12-25T02:03:27.030Z,8.83
2022-12-25T02:04:23.200Z,8.75
2022-12-25T02:05:15.939Z,9.38
2022-12-25T02:06:06.541Z,8.65
2022-12-25T02:06:37.971Z,8.32
2022-12-25T02:07:21.729Z,8.77
2022-12-25T02:07:54.531Z,9.63
2022-12-25T02:08:26.129Z,9.18
2022-12-25T02:08:59.060Z,10.02
2022-12-25T02:09:33.438Z,8.50
2022-12-25T02:10:23.449Z,9.30
2022-12-25T02:10:54.905Z,8.70
2022-12-25T02:11:45.115Z,10.93
2022-12-25T02:12:21.077Z,9.27
2022-12-25T02:12:53.436Z,9.57
2022-12-25T02:13:28.043Z,10.13
2022-12-25T02:13:59.573Z,8.48
2022-12-25T02:14:36.734Z,10.57
2022-12-25T02:15:11.939Z,11.15
2022-12-25T02:16:10.293Z,8.80
2022-12-25T02:16:57.015Z,8.17
2022-12-25T02:17:55.065Z,8.05
2022-12-25T02:18:54.385Z,7.88
2022-12-25T02:20:12.301Z,8.50
2022-12-25T02:20:51.787Z,7.93
2022-12-25T02:21:33.577Z,8.25
2022-12-25T02:22:31.094Z,8.75
2022-12-25T02:23:33.612Z,8.77
2022-12-25T02:24:42.503Z,7.90
2022-12-25T02:25:14.079Z,6.93
2022-12-25T02:26:19.278Z,8.50
2022-12-25T02:26:56.880Z,7.80
2022-12-25T02:27:51.331Z,7.25
2022-12-25T02:28:34.038Z,7.70
2022-12-25T02:29:08.124Z,8.52
2022-12-25T02:30:02.302Z,7.72
2022-12-25T02:30:42.719Z,9.13
2022-12-25T02:31:18.795Z,8.45
2022-12-25T02:31:59.568Z,7.55
2022-12-25T02:32:40.349Z,7.40
2022-12-25T02:33:41.853Z,8.87
2022-12-25T02:34:21.373Z,7.72
2022-12-25T02:35:15.417Z,10.00
2022-12-25T02:35:53.524Z,9.45
2022-12-25T02:36:37.729Z,9.77
2022-12-25T02:37:17.594Z,8.05
2022-12-25T02:37:55.927Z,8.30
2022-12-25T02:38:36.633Z,8.70
2022-12-25T02:39:42.630Z,8.57
2022-12-25T02:40:40.689Z,8.90
2022-12-25T02:41:18.861Z,8.03
2022-12-25T02:41:53.879Z,9.05
2022-12-25T02:43:16.040Z,8.48
2022-12-25T02:44:06.170Z,7.68
2022-12-25T02:45:01.872Z,9.32
2022-12-25T02:46:05.666Z,7.97
2022-12-25T02:46:55.503Z,7.97
2022-12-25T02:48:02.737Z,8.43
2022-12-25T02:48:57.324Z,7.93
2022-12-25T02:49:48.509Z,7.80
2022-12-25T02:50:40.564Z,8.83
2022-12-25T02:51:34.998Z,7.38
2022-12-25T02:52:32.109Z,9.40
2022-12-25T02:53:23.628Z,9.05
2022-12-25T02:54:16.100Z,9.10
2022-12-25T02:55:15.203Z,7.63
2022-12-25T02:56:07.851Z,8.20
2022-12-25T02:57:00.463Z,9.05
2022-12-25T02:57:56.584Z,8.75
2022-12-25T02:58:47.167Z,8.95
2022-12-25T02:59:39.455Z,9.87
2022-12-25T03:00:31.361Z,8.63
2022-12-25T03:01:32.280Z,8.45
2022-12-25T03:02:25.215Z,8.90
2022-12-25T03:03:17.539Z,8.52
2022-12-25T03:04:09.435Z,8.38
2022-12-25T03:05:00.393Z,7.60
2022-12-25T03:05:52.728Z,8.63
2022-12-25T03:06:43.431Z,9.10
2022-12-25T03:07:20.895Z,8.07
2022-12-25T03:07:52.333Z,8.87
2022-12-25T03:08:52.327Z,8.80
2022-12-25T03:09:47.932Z,8.38
2022-12-25T03:10:39.672Z,8.02
2022-12-25T03:11:31.268Z,7.60
2022-12-25T03:12:13.341Z,8.25
2022-12-25T03:13:01.506Z,8.25
2022-12-25T03:13:36.862Z,8.43
2022-12-25T03:14:27.612Z,8.18
2022-12-25T03:15:17.704Z,8.82
2022-12-25T03:16:08.224Z,8.03
2022-12-25T03:16:52.799Z,8.27
2022-12-25T03:17:24.778Z,10.18
2022-12-25T03:18:01.505Z,9.10
2022-12-25T03:18:34.224Z,8.45
2022-12-25T03:19:26.135Z,8.93
2022-12-25T03:20:19.494Z,8.50
2022-12-25T03:21:10.473Z,8.80
2022-12-25T03:22:00.362Z,9.00
2022-12-25T03:22:51.355Z,8.50
2022-12-25T03:23:47.348Z,8.30
2022-12-25T03:24:37.209Z,7.82
2022-12-25T03:25:28.009Z,9.00
2022-12-25T03:26:17.847Z,9.20
2022-12-25T03:26:54.921Z,8.77
2022-12-25T03:27:32.210Z,8.40
2022-12-25T03:28:04.193Z,8.95
2022-12-25T03:28:35.563Z,8.98
2022-12-25T03:29:07.199Z,9.77
2022-12-25T03:29:57.349Z,11.40
2022-12-25T03:30:57.056Z,8.67
2022-12-25T03:33:23.343Z,8.57
2022-12-25T03:34:30.554Z,8.82
2022-12-25T03:35:26.084Z,8.82
2022-12-25T03:36:28.348Z,7.45
2022-12-25T03:37:27.572Z,7.78
2022-12-25T03:38:51.247Z,8.13
2022-12-25T03:39:50.521Z,9.18
2022-12-25T03:40:52.850Z,7.75
2022-12-25T03:42:09.334Z,8.73
2022-12-25T03:43:06.194Z,8.27
2022-12-25T03:44:22.380Z,10.02
2022-12-25T03:45:21.939Z,8.68
2022-12-25T03:46:15.557Z,8.85
2022-12-25T03:48:34.042Z,8.60
2022-12-25T03:49:32.740Z,9.73
2022-12-25T03:50:36.004Z,9.07
2022-12-25T03:51:31.015Z,9.55
2022-12-25T03:52:24.578Z,9.87
2022-12-25T03:53:17.440Z,8.93
2022-12-25T03:54:14.173Z,10.05
2022-12-25T03:55:06.186Z,9.45
2022-12-25T03:55:57.578Z,8.75
2022-12-25T03:56:50.636Z,9.20
2022-12-25T03:57:40.683Z,9.48
2022-12-25T03:58:41.198Z,9.57
2022-12-25T03:59:31.323Z,9.70
2022-12-25T04:00:21.643Z,9.30
2022-12-25T04:01:11.982Z,9.10
2022-12-25T04:02:02.893Z,9.70
2022-12-25T04:02:53.971Z,9.48
2022-12-25T04:03:44.129Z,9.90
2022-12-25T04:04:33.968Z,10.40
2022-12-25T04:05:34.937Z,9.15
2022-12-25T04:06:25.057Z,9.02
2022-12-25T04:07:14.847Z,8.70
2022-12-25T04:08:04.925Z,8.63
2022-12-25T04:08:55.002Z,8.63
2022-12-25T04:09:44.974Z,8.83
2022-12-25T04:10:35.230Z,8.38
2022-12-25T04:11:25.096Z,8.30
2022-12-25T04:12:15.157Z,8.82
2022-12-25T04:13:18.929Z,9.18
2022-12-25T04:14:08.905Z,7.68
2022-12-25T04:14:58.785Z,8.45
2022-12-25T04:15:48.922Z,9.73
2022-12-25T04:16:38.961Z,8.82
2022-12-25T04:17:28.811Z,8.77
2022-12-25T04:18:18.784Z,8.20
2022-12-25T04:19:08.829Z,8.30
2022-12-25T04:19:58.715Z,8.23
2022-12-25T04:20:48.334Z,9.38
2022-12-25T04:21:38.215Z,8.55
2022-12-25T04:22:28.352Z,8.80
2022-12-25T04:23:18.707Z,7.90
2022-12-25T04:24:08.714Z,8.15
2022-12-25T04:24:58.945Z,8.23
2022-12-25T04:25:49.120Z,7.78
2022-12-25T04:26:39.378Z,10.13
2022-12-25T04:27:29.587Z,7.80
2022-12-25T04:28:21.119Z,8.98
2022-12-25T04:29:11.383Z,8.93
2022-12-25T04:30:01.771Z,9.10
2022-12-25T04:30:52.906Z,8.20
2022-12-25T04:31:43.002Z,8.27
2022-12-25T04:32:33.200Z,9.60
2022-12-25T04:33:23.305Z,8.45
2022-12-25T04:34:13.419Z,8.77
2022-12-25T04:35:03.289Z,7.03
2022-12-25T04:35:53.256Z,8.65
2022-12-25T04:36:24.624Z,8.73
2022-12-25T04:36:56.147Z,8.63
2022-12-25T04:37:27.621Z,7.63
2022-12-25T04:37:59.156Z,8.95
2022-12-25T04:38:30.635Z,8.50
2022-12-25T04:39:02.064Z,10.27
2022-12-25T04:39:33.440Z,9.55
2022-12-25T04:40:08.023Z,8.85
2022-12-25T04:40:39.571Z,8.50
2022-12-25T04:41:16.238Z,9.77
2022-12-25T04:41:47.761Z,7.78
2022-12-25T04:42:21.839Z,8.55
2022-12-25T04:42:53.633Z,9.43
2022-12-25T04:43:27.582Z,8.88
2022-12-25T04:44:00.505Z,8.18
2022-12-25T04:44:31.933Z,9.88
2022-12-25T04:45:05.862Z,9.07
2022-12-25T04:45:41.901Z,9.32
2022-12-25T04:46:13.347Z,8.30
2022-12-25T04:46:51.142Z,8.60
2022-12-25T04:47:22.641Z,8.10
2022-12-25T04:48:02.239Z,8.32
2022-12-25T04:48:37.041Z,9.60
2022-12-25T04:49:10.848Z,8.05
2022-12-25T04:49:42.458Z,8.15
2022-12-25T04:50:14.020Z,7.97
2022-12-25T04:50:45.543Z,8.50
2022-12-25T04:51:25.058Z,7.82
2022-12-25T04:51:56.529Z,9.13
2022-12-25T04:52:28.146Z,8.48
2022-12-25T04:53:04.375Z,7.97
2022-12-25T04:53:40.952Z,8.95
2022-12-25T04:54:12.445Z,6.93
2022-12-25T04:54:47.463Z,8.48
2022-12-25T04:55:24.673Z,8.32
2022-12-25T04:56:08.433Z,8.32
2022-12-25T04:56:45.819Z,7.97
2022-12-25T04:57:17.738Z,7.20
2022-12-25T04:57:49.261Z,7.33
2022-12-25T04:58:24.399Z,7.80
2022-12-25T04:59:03.114Z,8.30
2022-12-25T04:59:37.472Z,8.77
2022-12-25T05:00:09.519Z,7.70
2022-12-25T05:00:46.055Z,8.30
2022-12-25T05:01:17.885Z,7.75
2022-12-25T05:01:49.499Z,8.93
2022-12-25T05:02:26.267Z,8.65
2022-12-25T05:04:01.419Z,8.63
2022-12-25T05:04:32.878Z,7.00
2022-12-25T05:05:04.691Z,7.60
2022-12-25T05:05:42.604Z,8.63
2022-12-25T05:06:14.097Z,8.40
2022-12-25T05:06:45.587Z,7.18
2022-12-25T05:07:22.896Z,7.68
2022-12-25T05:07:56.213Z,7.35
2022-12-25T05:08:32.392Z,7.75
2022-12-25T05:09:04.106Z,6.63
2022-12-25T05:09:41.774Z,7.70
2022-12-25T05:10:13.434Z,7.68
2022-12-25T05:10:44.929Z,7.28
2022-12-25T05:11:19.649Z,6.93
2022-12-25T05:11:54.021Z,7.38
2022-12-25T05:12:25.496Z,7.53
2022-12-25T05:13:02.543Z,7.45
2022-12-25T05:13:35.835Z,7.60
2022-12-25T05:14:07.343Z,7.40
2022-12-25T05:14:45.536Z,7.60
2022-12-25T05:15:16.985Z,6.77
2022-12-25T05:15:54.362Z,7.13
2022-12-25T05:16:31.801Z,7.35
2022-12-25T05:17:08.014Z,7.75
2022-12-25T05:17:39.564Z,7.78
2022-12-25T05:18:18.881Z,7.13
2022-12-25T05:18:53.801Z,6.97
2022-12-25T05:19:28.509Z,6.95
2022-12-25T05:20:02.315Z,8.23
2022-12-25T05:20:40.007Z,7.28
2022-12-25T05:21:15.573Z,5.73
2022-12-25T05:22:36.527Z,7.03
2022-12-25T05:23:12.266Z,6.38
2022-12-25T05:23:53.101Z,6.75
2022-12-25T05:24:33.041Z,6.75
2022-12-25T05:25:12.082Z,6.00
2022-12-25T05:25:43.577Z,6.82
2022-12-25T05:26:17.173Z,6.28
2022-12-25T05:26:53.098Z,6.47
2022-12-25T05:27:26.799Z,6.30
2022-12-25T05:27:58.291Z,6.18
2022-12-25T05:28:31.366Z,6.38
2022-12-25T05:29:02.846Z,6.35
2022-12-25T05:29:37.453Z,6.53
2022-12-25T05:30:09.465Z,6.22
2022-12-25T05:30:50.257Z,7.55
2022-12-25T05:31:23.553Z,7.13
2022-12-25T05:31:57.164Z,6.75
2022-12-25T05:32:33.363Z,6.78
2022-12-25T05:33:10.148Z,6.53
2022-12-25T05:33:41.880Z,6.53
2022-12-25T05:34:19.177Z,5.88
2022-12-25T05:34:50.845Z,6.80
2022-12-25T05:35:22.384Z,7.28
2022-12-25T05:36:06.214Z,6.80
2022-12-25T05:36:40.604Z,6.88
2022-12-25T05:37:34.871Z,6.10
2022-12-25T05:38:12.583Z,6.45
2022-12-25T05:38:44.223Z,5.63
2022-12-25T05:39:19.157Z,5.63
2022-12-25T05:39:53.080Z,6.20
2022-12-25T05:40:27.139Z,6.13
2022-12-25T05:40:58.611Z,5.97
2022-12-25T05:41:34.513Z,6.95
2022-12-25T05:42:14.510Z,6.15
2022-12-25T05:42:49.317Z,6.20
2022-12-25T05:43:25.104Z,5.88
2022-12-25T05:43:56.535Z,6.10
2022-12-25T05:44:30.441Z,6.00
2022-12-25T05:45:01.918Z,7.20
2022-12-25T05:45:39.376Z,6.70
2022-12-25T05:46:13.128Z,6.50
2022-12-25T05:46:49.579Z,7.13
2022-12-25T05:47:23.943Z,6.65
2022-12-25T05:47:59.772Z,7.10
2022-12-25T05:48:32.734Z,6.93
2022-12-25T05:49:05.729Z,6.15
2022-12-25T05:49:38.430Z,7.05
2022-12-25T05:50:10.088Z,6.35
2022-12-25T05:50:41.624Z,7.03
2022-12-25T05:51:14.645Z,6.18
2022-12-25T05:51:50.815Z,6.75
2022-12-25T05:52:22.288Z,6.00
2022-12-25T05:52:57.708Z,6.47
2022-12-25T05:53:43.145Z,6.18
2022-12-25T05:54:14.576Z,5.82
2022-12-25T05:54:48.899Z,6.43
2022-12-25T05:55:23.464Z,5.03
2022-12-25T05:56:00.201Z,6.75
2022-12-25T05:56:32.919Z,6.97
2022-12-25T05:57:08.708Z,6.68
2022-12-25T05:57:40.170Z,6.18
2022-12-25T05:58:13.449Z,6.35
2022-12-25T05:58:44.861Z,6.93
2022-12-25T05:59:18.605Z,6.97
2022-12-25T05:59:50.073Z,7.38
2022-12-25T06:00:30.163Z,6.60
2022-12-25T06:01:22.762Z,6.03
2022-12-25T06:02:02.085Z,6.22
2022-12-25T06:02:35.468Z,6.50
2022-12-25T06:03:07.176Z,5.50
2022-12-25T06:03:41.899Z,6.18
2022-12-25T06:04:17.143Z,6.28
2022-12-25T06:04:50.762Z,5.70
2022-12-25T06:05:24.893Z,5.88
2022-12-25T06:05:56.422Z,5.78
2022-12-25T06:06:30.891Z,6.25
2022-12-25T06:07:04.737Z,6.22
2022-12-25T06:07:36.239Z,6.53
2022-12-25T06:08:09.877Z,6.67
2022-12-25T06:08:41.659Z,5.85
2022-12-25T06:09:15.876Z,6.38
2022-12-25T06:09:47.701Z,6.40
2022-12-25T06:10:24.158Z,6.13
2022-12-25T06:11:01.919Z,6.10
2022-12-25T06:11:35.808Z,6.25
2022-12-25T06:12:15.538Z,5.50
2022-12-25T06:12:47.294Z,6.05
2022-12-25T06:13:21.977Z,5.55
2022-12-25T06:13:55.520Z,6.10
2022-12-25T06:14:31.603Z,6.53
2022-12-25T06:15:04.561Z,5.57
2022-12-25T06:15:41.576Z,6.43
2022-12-25T06:16:23.790Z,6.38
2022-12-25T06:16:57.439Z,5.90
2022-12-25T06:17:33.893Z,6.18
2022-12-25T06:18:05.673Z,6.50
2022-12-25T06:19:33.902Z,5.35
2022-12-25T06:20:12.934Z,6.03
2022-12-25T06:20:55.039Z,5.18
2022-12-25T06:21:31.229Z,5.55
2022-12-25T06:22:04.679Z,5.80
2022-12-25T06:22:37.794Z,6.60
2022-12-25T06:23:09.506Z,5.70
2022-12-25T06:23:48.473Z,5.72
2022-12-25T06:24:22.749Z,5.70
2022-12-25T06:24:57.089Z,5.70
2022-12-25T06:25:34.094Z,5.68
2022-12-25T06:26:16.775Z,6.70
2022-12-25T06:26:49.836Z,6.03
2022-12-25T06:27:23.646Z,7.10
2022-12-25T06:28:05.091Z,6.10
2022-12-25T06:28:47.261Z,5.53
2022-12-25T06:29:21.880Z,5.78
2022-12-25T06:29:55.839Z,5.85
2022-12-25T06:30:29.878Z,5.47
2022-12-25T06:31:10.546Z,6.13
2022-12-25T06:31:43.157Z,5.78
2022-12-25T06:32:14.843Z,5.57
2022-12-25T06:32:50.725Z,5.90
2022-12-25T06:33:24.644Z,7.38
2022-12-25T06:34:03.526Z,5.45
2022-12-25T06:34:40.250Z,6.32
2022-12-25T06:35:16.238Z,5.55
2022-12-25T06:36:43.113Z,5.90
2022-12-25T06:37:20.003Z,5.57
2022-12-25T06:37:51.868Z,5.35
2022-12-25T06:38:32.016Z,5.13
2022-12-25T06:39:04.491Z,5.38
2022-12-25T06:39:38.315Z,5.47
2022-12-25T06:40:13.316Z,5.88
2022-12-25T06:40:44.988Z,5.25
2022-12-25T06:41:27.004Z,5.80
2022-12-25T06:42:00.680Z,5.88
2022-12-25T06:42:35.947Z,6.50
2022-12-25T06:43:09.784Z,6.05
2022-12-25T06:43:41.641Z,6.13
2022-12-25T06:44:16.300Z,6.53
2022-12-25T06:44:47.757Z,5.68
2022-12-25T06:45:28.418Z,5.50
2022-12-25T06:46:11.679Z,5.75
2022-12-25T06:46:43.479Z,6.60
2022-12-25T06:48:12.105Z,6.32
2022-12-25T06:49:03.577Z,6.10
2022-12-25T06:49:42.297Z,5.22
2022-12-25T06:50:17.250Z,4.50
2022-12-25T06:50:54.089Z,5.17
2022-12-25T06:51:38.875Z,5.28
2022-12-25T06:52:16.362Z,5.25
2022-12-25T06:52:49.879Z,5.88
2022-12-25T06:53:23.619Z,5.32
2022-12-25T06:53:59.426Z,5.45
2022-12-25T06:54:34.594Z,5.63
2022-12-25T06:55:13.464Z,5.32
2022-12-25T06:55:54.127Z,6.47
2022-12-25T06:56:28.221Z,5.25
2022-12-25T06:57:02.220Z,5.47
2022-12-25T06:57:36.701Z,5.22
2022-12-25T06:58:08.213Z,6.15
2022-12-25T06:58:49.624Z,6.15
2022-12-25T06:59:31.163Z,6.25
2022-12-25T07:00:03.527Z,5.68
2022-12-25T07:00:36.997Z,5.97
2022-12-25T07:01:21.577Z,5.78
2022-12-25T07:02:10.449Z,6.25
2022-12-25T07:02:48.452Z,5.20
2022-12-25T07:03:31.012Z,5.20
2022-12-25T07:04:10.246Z,5.75
2022-12-25T07:04:49.999Z,5.57
2022-12-25T07:05:24.396Z,5.60
2022-12-25T07:05:55.948Z,6.95
2022-12-25T07:06:35.146Z,6.63
2022-12-25T07:07:12.127Z,5.35
2022-12-25T07:07:45.982Z,5.75
2022-12-25T07:08:17.528Z,5.75
2022-12-25T07:08:54.601Z,6.53
2022-12-25T07:09:29.172Z,5.00
2022-12-25T07:10:02.724Z,5.57
2022-12-25T07:10:43.062Z,4.68
2022-12-25T07:11:17.857Z,5.55
2022-12-25T07:11:53.876Z,5.43
2022-12-25T07:12:34.838Z,4.95
2022-12-25T07:13:06.427Z,6.47
2022-12-25T07:13:54.642Z,5.88
2022-12-25T07:14:33.406Z,5.18
2022-12-25T07:15:18.371Z,4.78
2022-12-25T07:16:05.177Z,4.97
2022-12-25T07:16:43.253Z,5.53
2022-12-25T07:17:23.982Z,4.88
2022-12-25T07:18:04.230Z,4.60
2022-12-25T07:18:37.164Z,5.30
2022-12-25T07:19:15.531Z,5.40
2022-12-25T07:19:49.662Z,5.10
2022-12-25T07:20:23.235Z,5.25
2022-12-25T07:21:01.005Z,5.72
2022-12-25T07:21:32.521Z,6.03
2022-12-25T07:22:05.814Z,5.13
2022-12-25T07:22:39.339Z,5.05
2022-12-25T07:23:20.440Z,5.57
2022-12-25T07:23:59.882Z,4.72
2022-12-25T07:24:31.437Z,4.93
2022-12-25T07:25:12.109Z,6.20
2022-12-25T07:25:59.164Z,5.00
2022-12-25T07:26:32.944Z,5.40
2022-12-25T07:27:04.389Z,4.90
2022-12-25T07:27:41.802Z,4.93
2022-12-25T07:28:14.936Z,5.20
2022-12-25T07:28:51.718Z,5.30
2022-12-25T07:29:25.506Z,5.35
2022-12-25T07:30:12.039Z,5.68
2022-12-25T07:30:48.769Z,5.68
2022-12-25T07:31:22.980Z,5.28
2022-12-25T07:31:57.493Z,4.65
2022-12-25T07:32:45.575Z,4.63
2022-12-25T07:33:26.586Z,5.20
2022-12-25T07:33:58.335Z,4.88
2022-12-25T07:34:34.548Z,5.03
2022-12-25T07:35:06.332Z,5.13
2022-12-25T07:35:38.834Z,5.68
2022-12-25T07:36:15.943Z,5.38
2022-12-25T07:36:57.054Z,6.00
2022-12-25T07:37:31.888Z,5.35
2022-12-25T07:38:06.616Z,5.05
2022-12-25T07:38:46.343Z,5.25
2022-12-25T07:39:24.527Z,5.53
2022-12-25T07:39:56.044Z,4.95
2022-12-25T07:40:32.509Z,5.30
2022-12-25T07:41:08.089Z,5.25
2022-12-25T07:41:46.255Z,5.82
2022-12-25T07:42:24.932Z,5.60
2022-12-25T07:42:59.716Z,5.35
2022-12-25T07:43:31.243Z,5.35
2022-12-25T07:44:13.485Z,4.93
2022-12-25T07:44:53.445Z,5.65
2022-12-25T07:45:36.801Z,4.60
2022-12-25T07:46:13.555Z,4.78
2022-12-25T07:46:47.305Z,5.30
2022-12-25T07:47:18.719Z,5.22
2022-12-25T07:48:02.703Z,5.20
2022-12-25T07:48:41.061Z,5.07
2022-12-25T07:49:17.905Z,5.88
2022-12-25T07:49:49.676Z,5.25
2022-12-25T07:50:28.706Z,6.22
2022-12-25T07:51:02.228Z,5.18
2022-12-25T07:51:46.618Z,5.63
2022-12-25T07:52:27.095Z,5.47
2022-12-25T07:53:02.423Z,5.07
2022-12-25T07:53:42.946Z,5.22
2022-12-25T07:54:16.837Z,5.50
2022-12-25T07:54:53.597Z,4.78
2022-12-25T07:55:33.646Z,4.80
2022-12-25T07:56:10.929Z,5.97
2022-12-25T07:57:12.803Z,5.15
2022-12-25T07:57:49.425Z,4.75
2022-12-25T07:58:24.379Z,5.47
2022-12-25T07:59:01.488Z,4.85
2022-12-25T07:59:43.176Z,5.20
2022-12-25T08:00:17.913Z,4.80
2022-12-25T08:00:49.472Z,4.78
2022-12-25T08:01:27.373Z,5.38
2022-12-25T08:02:05.056Z,5.70
2022-12-25T08:03:03.368Z,4.68
2022-12-25T08:03:40.463Z,5.63
2022-12-25T08:04:18.579Z,5.15
2022-12-25T08:04:55.896Z,5.88
2022-12-25T08:05:33.851Z,4.45
2022-12-25T08:06:20.365Z,4.57
2022-12-25T08:07:04.325Z,5.15
2022-12-25T08:07:39.051Z,5.10
2022-12-25T08:08:17.565Z,5.05
2022-12-25T08:08:50.975Z,5.88
2022-12-25T08:09:27.312Z,6.10
2022-12-25T08:09:58.864Z,5.05
2022-12-25T08:10:30.662Z,4.70
2022-12-25T08:11:02.686Z,5.43
2022-12-25T08:11:36.697Z,5.05
2022-12-25T08:12:10.344Z,5.53
2022-12-25T08:12:44.807Z,5.65
2022-12-25T08:13:29.633Z,5.38
2022-12-25T08:14:22.584Z,4.88
2022-12-25T08:14:59.777Z,5.38
2022-12-25T08:15:33.737Z,5.55
2022-12-25T08:16:20.959Z,4.70
2022-12-25T08:16:52.951Z,4.80
2022-12-25T08:17:38.051Z,6.18
2022-12-25T08:18:15.614Z,6.10
2022-12-25T08:18:49.518Z,5.17
2022-12-25T08:19:27.674Z,4.80
2022-12-25T08:20:10.952Z,4.40
2022-12-25T08:20:52.926Z,6.32
2022-12-25T08:21:27.408Z,4.80
2022-12-25T08:22:01.010Z,4.75
2022-12-25T08:22:33.775Z,5.25
2022-12-25T08:23:18.719Z,4.97
2022-12-25T08:24:17.914Z,4.60
2022-12-25T08:25:48.578Z,4.73
2022-12-25T08:26:23.866Z,4.75
2022-12-25T08:27:00.703Z,5.05
2022-12-25T08:27:35.031Z,5.38
2022-12-25T08:28:16.838Z,5.03
2022-12-25T08:28:51.812Z,4.80
2022-12-25T08:29:23.431Z,5.35
2022-12-25T08:30:08.774Z,4.70
2022-12-25T08:30:54.952Z,5.47
2022-12-25T08:31:34.023Z,4.50
2022-12-25T08:32:15.709Z,4.93
2022-12-25T08:33:08.270Z,4.63
2022-12-25T08:33:46.185Z,5.43
2022-12-25T08:34:19.961Z,5.38
2022-12-25T08:34:56.273Z,4.93
2022-12-25T08:35:30.099Z,4.95
2022-12-25T08:36:09.406Z,5.45
2022-12-25T08:36:43.528Z,5.53
2022-12-25T08:37:15.195Z,5.20
2022-12-25T08:37:48.954Z,4.60
2022-12-25T08:38:26.310Z,4.90
2022-12-25T08:39:02.448Z,5.07
2022-12-25T08:39:49.201Z,5.25
2022-12-25T08:40:28.893Z,4.85
2022-12-25T08:41:00.427Z,6.00
2022-12-25T08:41:38.649Z,5.40
2022-12-25T08:43:01.220Z,5.07
2022-12-25T08:44:24.323Z,4.53
2022-12-25T08:45:01.163Z,4.87
2022-12-25T08:45:42.283Z,5.20
2022-12-25T08:46:16.795Z,6.05
2022-12-25T08:46:50.994Z,5.15
2022-12-25T08:47:30.505Z,4.65
2022-12-25T08:48:02.095Z,4.80
2022-12-25T08:48:39.707Z,5.75
2022-12-25T08:49:11.213Z,5.63
2022-12-25T08:49:42.599Z,5.13
2022-12-25T08:50:26.231Z,5.13
2022-12-25T08:51:00.436Z,5.57
2022-12-25T08:51:32.075Z,5.68
2022-12-25T08:52:06.350Z,5.63